createdAt,value
2023-10-26T00:01:32.800Z,26.27
2023-10-26T00:04:01.305Z,27.60
2023-10-26T00:06:29.920Z,25.57
2023-10-26T00:08:59.689Z,26.93
2023-10-26T00:11:27.989Z,22.07
2023-10-26T00:13:56.616Z,32.87
2023-10-26T00:16:24.950Z,21.07
2023-10-26T00:18:53.353Z,34.53
2023-10-26T00:21:22.272Z,19.30
2023-10-26T00:23:50.794Z,20.00
2023-10-26T00:26:20.580Z,15.03
2023-10-26T00:28:48.825Z,23.23
2023-10-26T00:31:18.290Z,21.43
2023-10-26T00:33:46.666Z,26.20
2023-10-26T00:36:14.965Z,22.23
2023-10-26T00:38:43.301Z,20.70
2023-10-26T00:41:11.652Z,17.00
2023-10-26T00:43:41.352Z,19.67
2023-10-26T00:46:12.052Z,18.17
2023-10-26T00:48:40.924Z,13.10
2023-10-26T00:51:09.487Z,12.03
2023-10-26T00:53:40.147Z,12.40
2023-10-26T00:56:09.740Z,21.10
2023-10-26T00:58:38.405Z,22.97
2023-10-26T01:01:08.062Z,19.90
2023-10-26T01:03:36.919Z,27.70
2023-10-26T01:06:05.805Z,19.10
2023-10-26T01:08:34.558Z,15.70
2023-10-26T01:11:04.091Z,16.50
2023-10-26T01:13:34.572Z,16.03
2023-10-26T01:16:05.846Z,11.33
2023-10-26T01:18:35.939Z,15.70
2023-10-26T01:21:04.339Z,14.63
2023-10-26T01:23:34.139Z,29.53
2023-10-26T01:26:02.550Z,25.47
2023-10-26T01:28:30.892Z,38.60
2023-10-26T01:30:59.183Z,27.90
2023-10-26T01:33:27.592Z,28.33
2023-10-26T01:35:56.291Z,23.93
2023-10-26T01:38:24.586Z,28.43
2023-10-26T01:40:54.488Z,31.30
2023-10-26T01:43:22.890Z,29.07
2023-10-26T01:45:51.153Z,28.90
2023-10-26T01:48:19.870Z,28.93
2023-10-26T01:50:48.207Z,21.67
2023-10-26T01:53:16.524Z,34.83
2023-10-26T01:55:44.986Z,29.47
2023-10-26T01:58:14.742Z,30.57
2023-10-26T02:00:43.040Z,25.10
2023-10-26T02:03:11.545Z,25.07
2023-10-26T02:05:40.084Z,32.93
2023-10-26T02:08:08.429Z,29.83
2023-10-26T02:10:36.964Z,32.37
2023-10-26T02:13:05.376Z,21.13
2023-10-26T02:15:35.159Z,22.70
2023-10-26T02:18:06.526Z,35.37
2023-10-26T02:20:34.849Z,32.80
2023-10-26T02:23:03.925Z,35.13
2023-10-26T02:25:32.252Z,30.80
2023-10-26T02:28:00.544Z,25.23
2023-10-26T02:30:29.058Z,28.40
2023-10-26T02:32:58.884Z,36.63
2023-10-26T02:35:27.306Z,34.03
2023-10-26T02:37:55.611Z,22.40
2023-10-26T02:40:24.448Z,29.07
2023-10-26T02:42:52.907Z,25.00
2023-10-26T02:45:21.263Z,41.17
2023-10-26T02:47:49.733Z,31.90
2023-10-26T02:50:19.536Z,27.13
2023-10-26T02:52:47.868Z,48.50
2023-10-26T02:55:16.574Z,28.07
2023-10-26T02:57:44.855Z,39.70
2023-10-26T03:00:15.653Z,31.90
2023-10-26T03:02:44.041Z,28.67
2023-10-26T03:05:12.553Z,26.90
2023-10-26T03:07:42.558Z,37.37
2023-10-26T03:10:11.442Z,32.97
2023-10-26T03:12:39.942Z,44.27
2023-10-26T03:15:09.578Z,41.77
2023-10-26T03:17:38.146Z,30.23
2023-10-26T03:20:08.061Z,39.37
2023-10-26T03:22:36.399Z,31.90
2023-10-26T03:25:07.507Z,42.23
2023-10-26T03:27:35.977Z,32.00
2023-10-26T03:30:04.555Z,35.40
2023-10-26T03:32:32.913Z,34.03
2023-10-26T03:35:02.118Z,34.33
2023-10-26T03:37:30.550Z,34.50
2023-10-26T03:39:58.853Z,43.13
2023-10-26T03:42:28.742Z,33.33
2023-10-26T03:44:57.031Z,37.20
2023-10-26T03:47:25.455Z,37.80
2023-10-26T03:49:53.899Z,32.63
2023-10-26T03:52:23.053Z,45.20
2023-10-26T03:54:51.438Z,32.47
2023-10-26T03:57:19.798Z,44.80
2023-10-26T03:59:49.666Z,38.43
2023-10-26T04:02:18.119Z,33.27
2023-10-26T04:04:46.484Z,39.37
2023-10-26T04:07:14.823Z,28.27
2023-10-26T04:09:43.185Z,31.47
2023-10-26T04:12:11.613Z,36.67
2023-10-26T04:14:39.872Z,35.03
2023-10-26T04:17:09.637Z,31.37
2023-10-26T04:19:38.162Z,38.20
2023-10-26T04:22:07.076Z,30.60
2023-10-26T04:24:36.000Z,40.97
2023-10-26T04:27:05.103Z,40.00
2023-10-26T04:29:33.580Z,34.60
2023-10-26T04:32:02.059Z,34.73
2023-10-26T04:34:32.767Z,38.47
2023-10-26T04:37:01.139Z,35.33
2023-10-26T04:39:29.558Z,30.97
2023-10-26T04:41:57.883Z,38.43
2023-10-26T04:44:26.475Z,43.17
2023-10-26T04:46:54.933Z,32.30
2023-10-26T04:49:23.564Z,35.57
2023-10-26T04:51:53.249Z,34.77
2023-10-26T04:54:21.808Z,32.80
2023-10-26T04:56:50.180Z,31.90
2023-10-26T04:59:18.563Z,31.90
2023-10-26T05:01:46.895Z,32.43
2023-10-26T05:04:15.401Z,33.00
2023-10-26T05:06:43.822Z,38.20
2023-10-26T05:09:13.970Z,27.77
2023-10-26T05:11:42.465Z,32.07
2023-10-26T05:14:10.881Z,48.83
2023-10-26T05:16:39.262Z,32.73
2023-10-26T05:19:07.882Z,32.20
2023-10-26T05:21:36.187Z,32.27
2023-10-26T05:24:04.970Z,32.73
2023-10-26T05:26:34.706Z,31.63
2023-10-26T05:29:05.065Z,28.20
2023-10-26T05:31:33.523Z,34.10
2023-10-26T05:34:01.831Z,36.33
2023-10-26T05:36:30.672Z,34.80
2023-10-26T05:38:59.155Z,30.90
2023-10-26T05:41:27.528Z,31.37
2023-10-26T05:43:57.262Z,37.77
2023-10-26T05:46:25.574Z,34.53
2023-10-26T05:48:53.976Z,37.87
2023-10-26T05:51:22.323Z,29.60
2023-10-26T05:53:50.608Z,50.73
2023-10-26T05:56:18.970Z,38.33
2023-10-26T05:58:47.248Z,30.97
2023-10-26T06:01:16.997Z,42.20
2023-10-26T06:03:45.600Z,51.20
2023-10-26T06:06:14.028Z,34.77
2023-10-26T06:08:42.354Z,28.23
2023-10-26T06:11:11.260Z,36.23
2023-10-26T06:13:39.698Z,38.67
2023-10-26T06:16:09.101Z,44.43
2023-10-26T06:18:38.823Z,31.70
2023-10-26T06:21:08.277Z,34.97
2023-10-26T06:23:36.622Z,29.70
2023-10-26T06:26:06.363Z,39.33
2023-10-26T06:28:34.705Z,28.43
2023-10-26T06:31:12.846Z,40.60
2023-10-26T06:33:42.950Z,25.20
2023-10-26T06:36:12.352Z,30.10
2023-10-26T06:38:41.443Z,34.00
2023-10-26T06:41:11.233Z,26.07
2023-10-26T06:43:40.285Z,34.70
2023-10-26T06:46:08.698Z,31.87
2023-10-26T06:48:38.031Z,37.53
2023-10-26T06:51:08.201Z,27.33
2023-10-26T06:53:36.591Z,46.80
2023-10-26T06:56:11.795Z,48.30
2023-10-26T06:58:41.049Z,36.93
2023-10-26T07:01:19.706Z,53.47
2023-10-26T07:03:49.930Z,44.57
2023-10-26T07:06:20.154Z,59.13
2023-10-26T07:08:53.958Z,41.60
2023-10-26T07:11:24.706Z,43.13
2023-10-26T07:13:53.129Z,43.30
2023-10-26T07:16:21.716Z,36.07
2023-10-26T07:18:50.523Z,31.90
2023-10-26T07:21:20.438Z,34.93
2023-10-26T07:23:48.825Z,39.53
2023-10-26T07:26:20.100Z,31.30
2023-10-26T07:28:48.694Z,32.33
2023-10-26T07:31:21.843Z,34.37
2023-10-26T07:33:50.744Z,34.00
2023-10-26T07:36:21.080Z,28.33
2023-10-26T07:39:47.246Z,34.73
2023-10-26T07:42:06.410Z,26.57
2023-10-26T07:44:27.596Z,35.30
2023-10-26T07:46:55.846Z,35.73
2023-10-26T07:49:24.306Z,39.23
2023-10-26T07:51:54.003Z,35.70
2023-10-26T07:54:22.366Z,40.70
2023-10-26T07:56:50.794Z,37.30
2023-10-26T07:59:19.333Z,35.37
2023-10-26T08:01:49.185Z,40.10
2023-10-26T08:04:17.679Z,46.83
2023-10-26T08:06:45.984Z,44.10
2023-10-26T08:09:17.048Z,48.60
2023-10-26T08:11:45.348Z,47.87
2023-10-26T08:16:03.958Z,32.03
2023-10-26T08:17:02.556Z,53.30
2023-10-26T08:19:31.596Z,46.33
2023-10-26T08:22:00.071Z,47.57
2023-10-26T08:24:29.830Z,57.90
2023-10-26T08:26:58.157Z,50.03
2023-10-26T08:29:29.019Z,42.70
2023-10-26T08:31:58.059Z,43.37
2023-10-26T08:34:26.940Z,30.53
2023-10-26T08:39:26.703Z,38.93
2023-10-26T08:41:59.326Z,45.30
2023-10-26T08:44:28.434Z,43.77
2023-10-26T08:47:01.490Z,38.93
2023-10-26T08:49:31.654Z,33.20
2023-10-26T08:52:00.686Z,43.00
2023-10-26T08:54:29.469Z,40.60
2023-10-26T08:57:08.899Z,33.03
2023-10-26T08:59:38.689Z,32.47
2023-10-26T09:02:07.269Z,30.83
2023-10-26T09:04:35.864Z,35.97
2023-10-26T09:07:04.558Z,30.53
2023-10-26T09:09:46.175Z,43.57
2023-10-26T09:12:16.915Z,33.40
2023-10-26T09:14:59.552Z,35.80
2023-10-26T09:17:29.339Z,36.93
2023-10-26T09:19:58.796Z,33.70
2023-10-26T09:22:40.250Z,29.33
2023-10-26T09:25:09.571Z,35.83
2023-10-26T09:27:40.262Z,28.00
2023-10-26T09:30:23.698Z,32.97
2023-10-26T09:32:52.399Z,31.83
2023-10-26T09:35:28.503Z,27.63
2023-10-26T09:37:57.514Z,33.10
2023-10-26T09:40:26.740Z,37.17
2023-10-26T09:42:58.552Z,30.47
2023-10-26T09:45:28.095Z,26.20
2023-10-26T09:47:57.056Z,24.20
2023-10-26T09:50:26.652Z,30.63
2023-10-26T09:52:57.805Z,30.20
2023-10-26T09:55:27.440Z,38.20
2023-10-26T09:58:02.010Z,28.07
2023-10-26T10:00:34.620Z,37.77
2023-10-26T10:03:12.894Z,25.80
2023-10-26T10:05:43.338Z,30.93
2023-10-26T10:08:12.182Z,26.53
2023-10-26T10:11:17.069Z,25.13
2023-10-26T10:13:46.760Z,33.17
2023-10-26T10:16:54.271Z,25.93
2023-10-26T10:19:24.445Z,30.17
2023-10-26T10:21:53.890Z,25.53
2023-10-26T10:24:51.914Z,31.57
2023-10-26T10:27:20.608Z,31.67
2023-10-26T10:29:50.346Z,41.60
2023-10-26T10:32:52.328Z,39.70
2023-10-26T10:35:44.995Z,41.33
2023-10-26T10:38:23.992Z,23.13
2023-10-26T10:41:16.110Z,30.00
2023-10-26T10:43:45.885Z,27.47
2023-10-26T10:46:17.437Z,24.23
2023-10-26T10:49:04.444Z,20.90
2023-10-26T10:51:34.798Z,38.23
2023-10-26T10:54:11.183Z,41.50
2023-10-26T10:56:51.810Z,21.13
2023-10-26T10:59:22.146Z,16.67
2023-10-26T11:01:53.530Z,27.70
2023-10-26T11:04:23.543Z,43.77
2023-10-26T11:06:52.064Z,27.77
2023-10-26T11:09:24.691Z,28.80
2023-10-26T11:11:52.991Z,31.50
2023-10-26T11:14:21.885Z,18.17
2023-10-26T11:16:52.695Z,37.00
2023-10-26T11:19:21.129Z,24.23
2023-10-26T11:21:55.350Z,34.67
2023-10-26T11:24:32.395Z,21.83
2023-10-26T11:27:08.895Z,18.97
2023-10-26T11:29:37.459Z,28.17
2023-10-26T11:32:19.811Z,27.03
2023-10-26T11:35:09.826Z,28.30
2023-10-26T11:37:39.809Z,21.90
2023-10-26T11:40:09.826Z,27.23
2023-10-26T11:42:48.297Z,24.77
2023-10-26T11:45:17.475Z,18.67
2023-10-26T11:47:51.667Z,23.33
2023-10-26T11:50:21.923Z,16.50
2023-10-26T11:52:50.822Z,24.23
2023-10-26T11:55:20.748Z,30.03
2023-10-26T11:57:49.232Z,22.23
2023-10-26T12:00:19.325Z,24.93
2023-10-26T12:02:49.306Z,30.20
2023-10-26T12:05:20.799Z,22.13
2023-10-26T12:07:50.265Z,22.77
2023-10-26T12:10:20.361Z,25.80
2023-10-26T12:12:49.999Z,25.80
2023-10-26T12:15:18.820Z,22.23
2023-10-26T12:17:51.556Z,22.70
2023-10-26T12:20:20.564Z,28.30
2023-10-26T12:22:49.949Z,21.87
2023-10-26T12:25:18.275Z,21.47
2023-10-26T12:28:21.114Z,21.70
2023-10-26T12:30:35.934Z,20.10
2023-10-26T12:33:05.823Z,22.73
2023-10-26T12:35:34.332Z,19.57
2023-10-26T12:38:02.604Z,17.20
2023-10-26T12:40:31.117Z,30.33
2023-10-26T12:42:59.607Z,28.87
2023-10-26T12:45:27.976Z,23.07
2023-10-26T12:47:57.106Z,13.77
2023-10-26T12:50:26.916Z,18.37
2023-10-26T12:52:56.214Z,20.60
2023-10-26T12:55:26.024Z,22.40
2023-10-26T12:57:56.495Z,18.90
2023-10-26T13:00:26.221Z,16.90
2023-10-26T13:02:54.570Z,19.83
2023-10-26T13:05:23.426Z,20.10
2023-10-26T13:07:54.098Z,21.13
2023-10-26T13:10:22.429Z,12.40
2023-10-26T13:12:50.818Z,16.43
2023-10-26T13:15:21.245Z,9.43
2023-10-26T13:17:50.687Z,15.23
2023-10-26T13:20:19.043Z,12.27
2023-10-26T13:22:50.148Z,15.67
2023-10-26T13:25:19.997Z,11.57
2023-10-26T13:27:48.619Z,25.13
2023-10-26T13:30:17.340Z,17.47
2023-10-26T13:32:45.738Z,15.80
2023-10-26T13:35:14.381Z,17.33
2023-10-26T13:37:42.650Z,28.33
2023-10-26T13:40:11.784Z,19.73
2023-10-26T13:42:41.538Z,22.37
2023-10-26T13:45:10.606Z,19.70
2023-10-26T13:47:38.924Z,17.40
2023-10-26T13:50:08.326Z,19.70
2023-10-26T13:52:36.656Z,19.53
2023-10-26T13:55:05.841Z,18.70
2023-10-26T13:57:34.384Z,14.47
2023-10-26T14:00:07.952Z,22.63
2023-10-26T14:02:51.506Z,18.93
2023-10-26T14:07:51.546Z,21.57
2023-10-26T14:10:20.602Z,13.13
2023-10-26T14:12:49.109Z,24.17
2023-10-26T14:15:18.888Z,21.17
2023-10-26T14:17:47.246Z,19.63
2023-10-26T14:20:15.546Z,15.33
2023-10-26T14:22:44.047Z,11.83
2023-10-26T14:25:12.314Z,19.30
2023-10-26T14:27:40.642Z,12.73
2023-10-26T14:30:10.559Z,15.97
2023-10-26T14:32:40.418Z,16.67
2023-10-26T14:35:09.098Z,14.53
2023-10-26T14:37:37.369Z,14.37
2023-10-26T14:40:06.524Z,18.33
2023-10-26T14:42:35.123Z,13.53
2023-10-26T14:45:03.567Z,20.93
2023-10-26T14:47:31.985Z,10.17
2023-10-26T14:50:01.765Z,9.20
2023-10-26T14:52:30.146Z,17.00
2023-10-26T14:54:58.438Z,19.33
2023-10-26T14:57:26.753Z,12.73
2023-10-26T14:59:54.984Z,7.93
2023-10-26T15:02:23.335Z,15.17
2023-10-26T15:04:52.050Z,19.47
2023-10-26T15:07:21.845Z,8.90
2023-10-26T15:10:22.701Z,18.83
2023-10-26T15:12:39.764Z,12.63
2023-10-26T15:15:08.952Z,9.77
2023-10-26T15:17:37.503Z,7.60
2023-10-26T15:20:06.677Z,9.53
2023-10-26T15:22:36.468Z,12.73
2023-10-26T15:25:05.249Z,5.20
2023-10-26T15:27:33.620Z,9.73
2023-10-26T15:30:01.963Z,8.40
2023-10-26T15:32:30.967Z,13.17
2023-10-26T15:34:59.569Z,8.33
2023-10-26T15:37:27.969Z,5.63
2023-10-26T15:39:57.754Z,4.90
2023-10-26T15:42:26.140Z,8.73
2023-10-26T15:44:54.692Z,6.93
2023-10-26T15:47:25.480Z,5.83
2023-10-26T15:49:54.632Z,7.03
2023-10-26T15:52:23.882Z,4.87
2023-10-26T15:54:52.394Z,4.83
2023-10-26T15:57:22.546Z,4.40
2023-10-26T15:59:51.106Z,11.97
2023-10-26T16:02:19.584Z,4.80
2023-10-26T16:04:47.872Z,6.53
2023-10-26T16:07:16.198Z,4.73
2023-10-26T16:09:45.522Z,4.50
2023-10-26T16:12:14.295Z,6.40
2023-10-26T16:14:44.288Z,4.90
2023-10-26T16:17:13.011Z,4.03
2023-10-26T16:19:41.244Z,4.50
2023-10-26T16:22:10.240Z,4.73
2023-10-26T16:24:38.958Z,7.60
2023-10-26T16:27:07.333Z,7.03
2023-10-26T16:29:36.193Z,12.17
2023-10-26T16:32:06.849Z,4.23
2023-10-26T16:34:35.228Z,5.50
2023-10-26T16:37:03.515Z,4.23
2023-10-26T16:39:31.916Z,4.20
2023-10-26T16:42:01.012Z,4.23
2023-10-26T16:44:29.458Z,8.03
2023-10-26T16:46:58.231Z,7.27
2023-10-26T16:49:28.200Z,7.13
2023-10-26T16:51:59.285Z,6.30
2023-10-26T16:54:29.152Z,10.67
2023-10-26T16:56:57.450Z,7.53
2023-10-26T16:59:25.821Z,6.07
2023-10-26T17:01:54.177Z,6.17
2023-10-26T17:04:22.455Z,4.83
2023-10-26T17:06:53.398Z,13.53
2023-10-26T17:09:23.672Z,11.57
2023-10-26T17:11:52.106Z,7.70
2023-10-26T17:14:20.370Z,16.63
2023-10-26T17:16:48.673Z,8.63
2023-10-26T17:19:17.042Z,6.37
2023-10-26T17:21:45.524Z,8.80
2023-10-26T17:24:15.227Z,6.43
2023-10-26T17:26:43.591Z,13.70
2023-10-26T17:29:12.133Z,5.67
2023-10-26T17:31:40.459Z,6.50
2023-10-26T17:34:09.133Z,4.53
2023-10-26T17:36:37.669Z,5.03
2023-10-26T17:39:07.179Z,5.10
2023-10-26T17:41:36.914Z,4.00
2023-10-26T17:44:05.920Z,5.47
2023-10-26T17:46:34.363Z,6.57
2023-10-26T17:49:02.829Z,5.33
2023-10-26T17:51:34.197Z,4.83
2023-10-26T17:54:03.340Z,5.13
2023-10-26T17:56:34.307Z,6.50
2023-10-26T17:59:04.051Z,13.50
2023-10-26T18:01:32.846Z,10.50
2023-10-26T18:04:01.256Z,5.20
2023-10-26T18:06:29.982Z,4.77
2023-10-26T18:08:58.291Z,8.70
2023-10-26T18:11:26.659Z,3.90
2023-10-26T18:13:55.218Z,7.27
2023-10-26T18:16:25.001Z,5.13
2023-10-26T18:18:53.379Z,4.20
2023-10-26T18:21:22.061Z,3.67
2023-10-26T18:23:50.524Z,8.80
2023-10-26T18:26:19.534Z,5.47
2023-10-26T18:28:48.604Z,7.00
2023-10-26T18:31:18.671Z,10.47
2023-10-26T18:33:50.599Z,4.13
2023-10-26T18:36:20.220Z,8.90
2023-10-26T18:38:49.609Z,5.43
2023-10-26T18:41:22.031Z,7.97
2023-10-26T18:43:52.266Z,3.90
2023-10-26T18:46:21.326Z,4.70
2023-10-26T18:48:51.458Z,14.47
2023-10-26T18:51:19.953Z,7.10
2023-10-26T18:53:50.250Z,4.03
2023-10-26T18:56:22.748Z,4.40
2023-10-26T18:58:51.488Z,4.63
2023-10-26T19:01:20.051Z,8.80
2023-10-26T19:04:01.365Z,6.83
2023-10-26T19:06:31.879Z,3.93
2023-10-26T19:09:00.737Z,7.63
2023-10-26T19:11:29.419Z,4.23
2023-10-26T19:13:58.142Z,7.00
2023-10-26T19:16:26.816Z,10.73
2023-10-26T19:18:55.915Z,4.33
2023-10-26T19:21:24.574Z,4.40
2023-10-26T19:23:54.329Z,4.40
2023-10-26T19:26:22.845Z,4.90
2023-10-26T19:28:51.213Z,5.93
2023-10-26T19:31:19.697Z,5.40
2023-10-26T19:33:49.399Z,4.73
2023-10-26T19:36:17.965Z,16.47
2023-10-26T19:38:46.374Z,5.00
2023-10-26T19:41:19.401Z,4.97
2023-10-26T19:43:47.828Z,4.10
2023-10-26T19:46:16.473Z,11.70
2023-10-26T19:48:45.094Z,6.23
2023-10-26T19:51:15.424Z,4.40
2023-10-26T19:53:46.431Z,4.70
2023-10-26T19:56:15.728Z,5.57
2023-10-26T19:58:45.520Z,6.50
2023-10-26T20:01:15.309Z,6.73
2023-10-26T20:03:43.800Z,10.07
2023-10-26T20:06:12.225Z,8.60
2023-10-26T20:08:40.701Z,7.23
2023-10-26T20:11:11.319Z,5.20
2023-10-26T20:13:39.699Z,4.97
2023-10-26T20:16:09.782Z,11.77
2023-10-26T20:18:41.980Z,5.33
2023-10-26T20:21:11.072Z,5.13
2023-10-26T20:23:39.450Z,7.20
2023-10-26T20:26:08.256Z,8.67
2023-10-26T20:28:38.303Z,5.90
2023-10-26T20:31:07.004Z,12.10
2023-10-26T20:33:36.896Z,11.23
2023-10-26T20:36:06.642Z,15.10
2023-10-26T20:38:35.242Z,7.93
2023-10-26T20:41:03.946Z,5.70
2023-10-26T20:43:32.290Z,5.07
2023-10-26T20:46:02.296Z,12.37
2023-10-26T20:48:30.879Z,9.90
2023-10-26T20:51:00.849Z,12.53
2023-10-26T20:53:29.996Z,7.63
2023-10-26T20:56:01.705Z,7.73
2023-10-26T20:58:30.644Z,8.50
2023-10-26T21:00:59.719Z,4.17
2023-10-26T21:03:28.741Z,15.77
2023-10-26T21:06:05.846Z,6.30
2023-10-26T21:08:34.463Z,6.17
2023-10-26T21:11:03.222Z,8.27
2023-10-26T21:13:31.871Z,10.00
2023-10-26T21:16:02.604Z,5.90
2023-10-26T21:18:31.090Z,14.40
2023-10-26T21:20:59.321Z,6.80
2023-10-26T21:23:29.772Z,4.37
2023-10-26T21:25:58.121Z,8.47
2023-10-26T21:28:26.487Z,6.23
2023-10-26T21:30:57.069Z,8.73
2023-10-26T21:33:25.424Z,7.20
2023-10-26T21:35:54.028Z,8.00
2023-10-26T21:38:22.984Z,4.93
2023-10-26T21:40:52.824Z,4.67
2023-10-26T21:43:21.342Z,8.70
2023-10-26T21:45:49.756Z,6.60
2023-10-26T21:48:18.232Z,7.87
2023-10-26T21:50:46.540Z,15.77
2023-10-26T21:53:17.432Z,4.67
2023-10-26T21:55:47.077Z,5.63
2023-10-26T21:58:16.872Z,7.83
2023-10-26T22:00:48.020Z,9.00
2023-10-26T22:03:16.465Z,6.87
2023-10-26T22:05:44.843Z,11.90
2023-10-26T22:08:14.535Z,5.20
2023-10-26T22:10:43.139Z,5.20
2023-10-26T22:13:11.918Z,6.90
2023-10-26T22:15:42.219Z,4.50
2023-10-26T22:18:10.674Z,9.00
2023-10-26T22:20:40.004Z,12.90
2023-10-26T22:23:08.634Z,5.60
2023-10-26T22:25:37.008Z,5.80
2023-10-26T22:28:07.685Z,9.47
2023-10-26T22:30:36.478Z,6.50
2023-10-26T22:33:06.243Z,7.63
2023-10-26T22:35:34.692Z,4.33
2023-10-26T22:38:03.121Z,9.53
2023-10-26T22:40:32.367Z,6.17
2023-10-26T22:43:02.876Z,8.13
2023-10-26T22:45:31.289Z,5.93
2023-10-26T22:47:59.661Z,15.20
2023-10-26T22:50:29.585Z,9.13
2023-10-26T22:52:57.858Z,6.77
2023-10-26T22:55:26.451Z,4.93
2023-10-26T22:57:55.251Z,9.37
2023-10-26T23:00:23.737Z,8.10
2023-10-26T23:02:52.033Z,4.90
2023-10-26T23:05:20.470Z,7.77
2023-10-26T23:07:50.297Z,12.13
2023-10-26T23:10:18.715Z,4.67
2023-10-26T23:12:46.999Z,6.07
2023-10-26T23:15:15.377Z,8.20
2023-10-26T23:17:43.987Z,7.90
2023-10-26T23:20:13.548Z,5.17
2023-10-26T23:22:41.902Z,4.77
2023-10-26T23:25:12.036Z,13.70
2023-10-26T23:27:40.360Z,6.70
2023-10-26T23:30:10.067Z,7.03
2023-10-26T23:32:38.624Z,8.80
2023-10-26T23:35:07.788Z,5.47
2023-10-26T23:37:36.109Z,6.17
2023-10-26T23:40:05.330Z,6.53
2023-10-26T23:42:35.102Z,4.60
2023-10-26T23:45:03.583Z,4.93
2023-10-26T23:47:31.903Z,9.53
2023-10-26T23:50:00.309Z,4.30
2023-10-26T23:52:28.696Z,5.47
2023-10-26T23:54:57.009Z,7.77
2023-10-26T23:57:25.400Z,4.80
2023-10-26T23:59:55.342Z,6.83
